sensor_id;sensor_type;location;lat;lon;timestamp;P1;durP1;ratioP1;P2;durP2;ratioP2
5801;SDS011;2927;49.366;8.530;2023-03-23T00:01:24;1.83;;;1.03;;
5801;SDS011;2927;49.366;8.530;2023-03-23T00:03:52;1.10;;;1.00;;
5801;SDS011;2927;49.366;8.530;2023-03-23T00:06:21;1.23;;;1.10;;
5801;SDS011;2927;49.366;8.530;2023-03-23T00:08:48;3.67;;;1.63;;
5801;SDS011;2927;49.366;8.530;2023-03-23T00:11:21;3.10;;;1.40;;
5801;SDS011;2927;49.366;8.530;2023-03-23T00:13:51;1.30;;;1.20;;
5801;SDS011;2927;49.366;8.530;2023-03-23T00:16:17;1.93;;;1.10;;
5801;SDS011;2927;49.366;8.530;2023-03-23T00:18:48;2.70;;;1.27;;
5801;SDS011;2927;49.366;8.530;2023-03-23T00:21:17;1.87;;;0.80;;
5801;SDS011;2927;49.366;8.530;2023-03-23T00:23:43;1.13;;;1.07;;
5801;SDS011;2927;49.366;8.530;2023-03-23T00:26:10;1.03;;;0.90;;
5801;SDS011;2927;49.366;8.530;2023-03-23T00:28:36;9.40;;;1.20;;
5801;SDS011;2927;49.366;8.530;2023-03-23T00:31:04;2.83;;;1.30;;
5801;SDS011;2927;49.366;8.530;2023-03-23T00:33:32;0.83;;;0.83;;
5801;SDS011;2927;49.366;8.530;2023-03-23T00:36:03;2.37;;;0.90;;
5801;SDS011;2927;49.366;8.530;2023-03-23T00:38:29;1.23;;;0.80;;
5801;SDS011;2927;49.366;8.530;2023-03-23T00:40:56;1.30;;;0.87;;
5801;SDS011;2927;49.366;8.530;2023-03-23T00:43:22;1.07;;;0.90;;
5801;SDS011;2927;49.366;8.530;2023-03-23T00:45:49;6.73;;;1.37;;
5801;SDS011;2927;49.366;8.530;2023-03-23T00:48:17;1.90;;;1.30;;
5801;SDS011;2927;49.366;8.530;2023-03-23T00:50:48;1.70;;;0.67;;
5801;SDS011;2927;49.366;8.530;2023-03-23T00:53:14;1.90;;;0.70;;
5801;SDS011;2927;49.366;8.530;2023-03-23T00:55:41;1.70;;;1.10;;
5801;SDS011;2927;49.366;8.530;2023-03-23T00:58:07;2.43;;;1.40;;
5801;SDS011;2927;49.366;8.530;2023-03-23T01:00:34;1.23;;;1.00;;
5801;SDS011;2927;49.366;8.530;2023-03-23T01:02:59;2.40;;;0.80;;
5801;SDS011;2927;49.366;8.530;2023-03-23T01:05:25;0.83;;;0.83;;
5801;SDS011;2927;49.366;8.530;2023-03-23T01:07:56;0.93;;;0.77;;
5801;SDS011;2927;49.366;8.530;2023-03-23T01:10:25;1.07;;;0.80;;
5801;SDS011;2927;49.366;8.530;2023-03-23T01:12:53;1.27;;;0.97;;
5801;SDS011;2927;49.366;8.530;2023-03-23T01:15:19;1.43;;;0.90;;
5801;SDS011;2927;49.366;8.530;2023-03-23T01:17:45;2.43;;;1.20;;
5801;SDS011;2927;49.366;8.530;2023-03-23T01:20:12;1.63;;;0.80;;
5801;SDS011;2927;49.366;8.530;2023-03-23T01:22:40;1.13;;;1.00;;
5801;SDS011;2927;49.366;8.530;2023-03-23T01:25:06;1.00;;;1.00;;
5801;SDS011;2927;49.366;8.530;2023-03-23T01:27:33;4.70;;;0.90;;
5801;SDS011;2927;49.366;8.530;2023-03-23T01:29:58;1.60;;;1.10;;
5801;SDS011;2927;49.366;8.530;2023-03-23T01:32:24;3.20;;;1.07;;
5801;SDS011;2927;49.366;8.530;2023-03-23T01:34:49;1.27;;;1.17;;
5801;SDS011;2927;49.366;8.530;2023-03-23T01:37:15;2.30;;;1.43;;
5801;SDS011;2927;49.366;8.530;2023-03-23T01:39:41;1.10;;;0.90;;
5801;SDS011;2927;49.366;8.530;2023-03-23T01:42:08;1.90;;;1.10;;
5801;SDS011;2927;49.366;8.530;2023-03-23T01:47:00;4.20;;;1.00;;
5801;SDS011;2927;49.366;8.530;2023-03-23T01:49:33;0.70;;;0.70;;
5801;SDS011;2927;49.366;8.530;2023-03-23T01:52:02;1.07;;;1.07;;
5801;SDS011;2927;49.366;8.530;2023-03-23T01:54:33;0.90;;;0.80;;
5801;SDS011;2927;49.366;8.530;2023-03-23T01:57:07;3.17;;;0.80;;
5801;SDS011;2927;49.366;8.530;2023-03-23T01:59:36;0.70;;;0.70;;
5801;SDS011;2927;49.366;8.530;2023-03-23T02:02:02;1.40;;;0.93;;
5801;SDS011;2927;49.366;8.530;2023-03-23T02:04:29;4.37;;;1.10;;
5801;SDS011;2927;49.366;8.530;2023-03-23T02:06:56;2.03;;;1.27;;
5801;SDS011;2927;49.366;8.530;2023-03-23T02:09:22;1.40;;;0.90;;
5801;SDS011;2927;49.366;8.530;2023-03-23T02:11:50;1.27;;;1.03;;
5801;SDS011;2927;49.366;8.530;2023-03-23T02:14:17;1.53;;;1.33;;
5801;SDS011;2927;49.366;8.530;2023-03-23T02:19:32;1.30;;;1.07;;
5801;SDS011;2927;49.366;8.530;2023-03-23T02:25:35;1.37;;;1.27;;
5801;SDS011;2927;49.366;8.530;2023-03-23T02:28:31;1.00;;;0.73;;
5801;SDS011;2927;49.366;8.530;2023-03-23T02:33:48;1.80;;;1.13;;
5801;SDS011;2927;49.366;8.530;2023-03-23T02:36:28;1.87;;;1.30;;
5801;SDS011;2927;49.366;8.530;2023-03-23T02:41:36;1.00;;;1.00;;
5801;SDS011;2927;49.366;8.530;2023-03-23T02:44:06;2.00;;;1.30;;
5801;SDS011;2927;49.366;8.530;2023-03-23T02:46:33;0.87;;;0.87;;
5801;SDS011;2927;49.366;8.530;2023-03-23T02:49:00;4.23;;;0.90;;
5801;SDS011;2927;49.366;8.530;2023-03-23T02:51:28;1.53;;;1.20;;
5801;SDS011;2927;49.366;8.530;2023-03-23T02:53:55;1.43;;;1.33;;
5801;SDS011;2927;49.366;8.530;2023-03-23T02:56:23;2.43;;;1.20;;
5801;SDS011;2927;49.366;8.530;2023-03-23T02:58:52;1.30;;;0.93;;
5801;SDS011;2927;49.366;8.530;2023-03-23T03:03:50;1.43;;;1.33;;
5801;SDS011;2927;49.366;8.530;2023-03-23T03:09:03;1.40;;;1.30;;
5801;SDS011;2927;49.366;8.530;2023-03-23T03:11:35;0.77;;;0.70;;
5801;SDS011;2927;49.366;8.530;2023-03-23T03:14:06;3.03;;;0.87;;
5801;SDS011;2927;49.366;8.530;2023-03-23T03:16:38;0.83;;;0.80;;
5801;SDS011;2927;49.366;8.530;2023-03-23T03:19:29;0.60;;;0.60;;
5801;SDS011;2927;49.366;8.530;2023-03-23T03:21:57;2.77;;;1.17;;
5801;SDS011;2927;49.366;8.530;2023-03-23T03:24:24;1.57;;;0.97;;
5801;SDS011;2927;49.366;8.530;2023-03-23T03:26:52;2.10;;;0.80;;
5801;SDS011;2927;49.366;8.530;2023-03-23T03:29:23;0.77;;;0.50;;
5801;SDS011;2927;49.366;8.530;2023-03-23T03:31:52;2.47;;;1.20;;
5801;SDS011;2927;49.366;8.530;2023-03-23T03:34:20;2.80;;;1.00;;
5801;SDS011;2927;49.366;8.530;2023-03-23T03:36:48;4.13;;;0.80;;
5801;SDS011;2927;49.366;8.530;2023-03-23T03:39:16;5.20;;;1.00;;
5801;SDS011;2927;49.366;8.530;2023-03-23T03:41:45;1.13;;;0.90;;
5801;SDS011;2927;49.366;8.530;2023-03-23T03:44:11;2.13;;;1.30;;
5801;SDS011;2927;49.366;8.530;2023-03-23T03:46:37;1.10;;;0.87;;
5801;SDS011;2927;49.366;8.530;2023-03-23T03:49:04;1.80;;;1.10;;
5801;SDS011;2927;49.366;8.530;2023-03-23T03:51:32;9.50;;;1.10;;
5801;SDS011;2927;49.366;8.530;2023-03-23T03:53:58;3.70;;;0.90;;
5801;SDS011;2927;49.366;8.530;2023-03-23T03:56:24;3.23;;;1.10;;
5801;SDS011;2927;49.366;8.530;2023-03-23T03:58:50;2.00;;;1.00;;
5801;SDS011;2927;49.366;8.530;2023-03-23T04:01:16;1.23;;;1.13;;
5801;SDS011;2927;49.366;8.530;2023-03-23T04:03:44;2.00;;;1.27;;
5801;SDS011;2927;49.366;8.530;2023-03-23T04:06:10;2.60;;;1.50;;
5801;SDS011;2927;49.366;8.530;2023-03-23T04:08:38;2.20;;;0.80;;
5801;SDS011;2927;49.366;8.530;2023-03-23T04:11:06;1.97;;;1.40;;
5801;SDS011;2927;49.366;8.530;2023-03-23T04:13:32;1.07;;;1.07;;
5801;SDS011;2927;49.366;8.530;2023-03-23T04:15:58;1.63;;;1.10;;
5801;SDS011;2927;49.366;8.530;2023-03-23T04:18:25;1.20;;;0.90;;
5801;SDS011;2927;49.366;8.530;2023-03-23T04:20:51;1.77;;;1.00;;
5801;SDS011;2927;49.366;8.530;2023-03-23T04:23:17;1.53;;;1.00;;
5801;SDS011;2927;49.366;8.530;2023-03-23T04:25:51;2.20;;;0.93;;
5801;SDS011;2927;49.366;8.530;2023-03-23T04:28:18;5.57;;;1.67;;
5801;SDS011;2927;49.366;8.530;2023-03-23T04:30:48;1.63;;;0.97;;
5801;SDS011;2927;49.366;8.530;2023-03-23T04:33:18;1.80;;;1.70;;
5801;SDS011;2927;49.366;8.530;2023-03-23T04:35:45;2.30;;;1.03;;
5801;SDS011;2927;49.366;8.530;2023-03-23T04:38:13;2.20;;;0.90;;
5801;SDS011;2927;49.366;8.530;2023-03-23T04:40:40;1.27;;;1.10;;
5801;SDS011;2927;49.366;8.530;2023-03-23T04:43:07;4.03;;;1.30;;
5801;SDS011;2927;49.366;8.530;2023-03-23T04:45:34;1.17;;;1.07;;
5801;SDS011;2927;49.366;8.530;2023-03-23T04:48:02;9.63;;;1.40;;
5801;SDS011;2927;49.366;8.530;2023-03-23T04:50:30;1.13;;;1.03;;
5801;SDS011;2927;49.366;8.530;2023-03-23T04:52:58;1.40;;;1.30;;
5801;SDS011;2927;49.366;8.530;2023-03-23T04:55:29;1.63;;;0.90;;
5801;SDS011;2927;49.366;8.530;2023-03-23T04:57:57;3.53;;;1.27;;
5801;SDS011;2927;49.366;8.530;2023-03-23T05:00:26;1.10;;;1.00;;
5801;SDS011;2927;49.366;8.530;2023-03-23T05:02:52;2.50;;;1.27;;
5801;SDS011;2927;49.366;8.530;2023-03-23T05:05:20;2.70;;;1.33;;
5801;SDS011;2927;49.366;8.530;2023-03-23T05:07:46;1.23;;;1.13;;
5801;SDS011;2927;49.366;8.530;2023-03-23T05:10:12;2.50;;;1.23;;
5801;SDS011;2927;49.366;8.530;2023-03-23T05:12:38;1.50;;;1.40;;
5801;SDS011;2927;49.366;8.530;2023-03-23T05:15:05;1.20;;;0.90;;
5801;SDS011;2927;49.366;8.530;2023-03-23T05:17:32;1.83;;;1.23;;
5801;SDS011;2927;49.366;8.530;2023-03-23T05:19:58;1.30;;;1.13;;
5801;SDS011;2927;49.366;8.530;2023-03-23T05:22:26;1.93;;;1.50;;
5801;SDS011;2927;49.366;8.530;2023-03-23T05:24:52;2.17;;;1.20;;
5801;SDS011;2927;49.366;8.530;2023-03-23T05:27:18;1.50;;;1.40;;
5801;SDS011;2927;49.366;8.530;2023-03-23T05:29:45;2.27;;;2.10;;
5801;SDS011;2927;49.366;8.530;2023-03-23T05:32:13;2.40;;;1.67;;
5801;SDS011;2927;49.366;8.530;2023-03-23T05:34:41;11.53;;;1.47;;
5801;SDS011;2927;49.366;8.530;2023-03-23T05:37:08;4.23;;;1.90;;
5801;SDS011;2927;49.366;8.530;2023-03-23T05:39:34;2.63;;;1.40;;
5801;SDS011;2927;49.366;8.530;2023-03-23T05:42:01;2.73;;;1.50;;
5801;SDS011;2927;49.366;8.530;2023-03-23T05:44:27;4.60;;;1.90;;
5801;SDS011;2927;49.366;8.530;2023-03-23T05:46:53;2.53;;;1.37;;
5801;SDS011;2927;49.366;8.530;2023-03-23T05:49:18;3.23;;;1.70;;
5801;SDS011;2927;49.366;8.530;2023-03-23T05:51:44;2.73;;;1.20;;
5801;SDS011;2927;49.366;8.530;2023-03-23T05:54:11;10.00;;;3.90;;
5801;SDS011;2927;49.366;8.530;2023-03-23T05:56:36;1.33;;;1.23;;
5801;SDS011;2927;49.366;8.530;2023-03-23T05:59:02;2.20;;;1.20;;
5801;SDS011;2927;49.366;8.530;2023-03-23T06:01:28;4.00;;;1.40;;
5801;SDS011;2927;49.366;8.530;2023-03-23T06:03:53;9.60;;;1.23;;
5801;SDS011;2927;49.366;8.530;2023-03-23T06:06:23;1.40;;;1.30;;
5801;SDS011;2927;49.366;8.530;2023-03-23T06:08:52;7.10;;;1.53;;
5801;SDS011;2927;49.366;8.530;2023-03-23T06:11:18;3.17;;;1.50;;
5801;SDS011;2927;49.366;8.530;2023-03-23T06:13:43;2.30;;;1.20;;
5801;SDS011;2927;49.366;8.530;2023-03-23T06:16:09;2.00;;;1.50;;
5801;SDS011;2927;49.366;8.530;2023-03-23T06:18:35;1.13;;;1.13;;
5801;SDS011;2927;49.366;8.530;2023-03-23T06:21:02;1.90;;;1.30;;
5801;SDS011;2927;49.366;8.530;2023-03-23T06:23:29;1.63;;;1.07;;
5801;SDS011;2927;49.366;8.530;2023-03-23T06:25:56;5.40;;;1.37;;
5801;SDS011;2927;49.366;8.530;2023-03-23T06:28:24;1.63;;;1.53;;
5801;SDS011;2927;49.366;8.530;2023-03-23T06:30:50;1.60;;;1.50;;
5801;SDS011;2927;49.366;8.530;2023-03-23T06:33:15;3.20;;;1.63;;
5801;SDS011;2927;49.366;8.530;2023-03-23T06:35:42;2.30;;;2.00;;
5801;SDS011;2927;49.366;8.530;2023-03-23T06:38:08;1.97;;;1.50;;
5801;SDS011;2927;49.366;8.530;2023-03-23T06:40:34;1.53;;;0.90;;
5801;SDS011;2927;49.366;8.530;2023-03-23T06:43:01;1.80;;;0.90;;
5801;SDS011;2927;49.366;8.530;2023-03-23T06:45:28;1.73;;;1.00;;
5801;SDS011;2927;49.366;8.530;2023-03-23T06:47:54;1.40;;;1.30;;
5801;SDS011;2927;49.366;8.530;2023-03-23T06:50:19;4.87;;;1.00;;
5801;SDS011;2927;49.366;8.530;2023-03-23T06:52:48;1.67;;;1.57;;
5801;SDS011;2927;49.366;8.530;2023-03-23T06:55:16;2.77;;;1.30;;
5801;SDS011;2927;49.366;8.530;2023-03-23T06:57:43;2.53;;;0.97;;
5801;SDS011;2927;49.366;8.530;2023-03-23T07:00:10;3.50;;;1.07;;
5801;SDS011;2927;49.366;8.530;2023-03-23T07:02:38;1.30;;;1.20;;
5801;SDS011;2927;49.366;8.530;2023-03-23T07:05:08;1.47;;;0.90;;
5801;SDS011;2927;49.366;8.530;2023-03-23T07:07:35;1.40;;;1.03;;
5801;SDS011;2927;49.366;8.530;2023-03-23T07:10:02;2.20;;;1.00;;
5801;SDS011;2927;49.366;8.530;2023-03-23T07:12:28;1.13;;;1.10;;
5801;SDS011;2927;49.366;8.530;2023-03-23T07:14:54;2.10;;;1.20;;
5801;SDS011;2927;49.366;8.530;2023-03-23T07:17:20;0.77;;;0.77;;
5801;SDS011;2927;49.366;8.530;2023-03-23T07:19:46;1.07;;;0.90;;
5801;SDS011;2927;49.366;8.530;2023-03-23T07:22:11;1.43;;;0.90;;
5801;SDS011;2927;49.366;8.530;2023-03-23T07:24:36;0.70;;;0.70;;
5801;SDS011;2927;49.366;8.530;2023-03-23T07:27:02;0.80;;;0.80;;
5801;SDS011;2927;49.366;8.530;2023-03-23T07:29:28;1.27;;;0.93;;
5801;SDS011;2927;49.366;8.530;2023-03-23T07:31:54;1.47;;;1.37;;
5801;SDS011;2927;49.366;8.530;2023-03-23T07:34:20;0.90;;;0.90;;
5801;SDS011;2927;49.366;8.530;2023-03-23T07:36:46;2.13;;;1.13;;
5801;SDS011;2927;49.366;8.530;2023-03-23T07:39:12;1.20;;;0.73;;
5801;SDS011;2927;49.366;8.530;2023-03-23T07:41:38;0.77;;;0.73;;
5801;SDS011;2927;49.366;8.530;2023-03-23T07:44:04;2.10;;;1.20;;
5801;SDS011;2927;49.366;8.530;2023-03-23T07:46:30;1.17;;;1.07;;
5801;SDS011;2927;49.366;8.530;2023-03-23T07:48:56;1.20;;;1.10;;
5801;SDS011;2927;49.366;8.530;2023-03-23T07:51:22;0.80;;;0.67;;
5801;SDS011;2927;49.366;8.530;2023-03-23T07:53:48;5.63;;;1.30;;
5801;SDS011;2927;49.366;8.530;2023-03-23T07:56:15;0.80;;;0.80;;
5801;SDS011;2927;49.366;8.530;2023-03-23T07:58:43;2.10;;;0.90;;
5801;SDS011;2927;49.366;8.530;2023-03-23T08:01:10;0.70;;;0.50;;
5801;SDS011;2927;49.366;8.530;2023-03-23T08:03:36;0.63;;;0.63;;
5801;SDS011;2927;49.366;8.530;2023-03-23T08:06:02;1.47;;;0.70;;
5801;SDS011;2927;49.366;8.530;2023-03-23T08:08:29;0.70;;;0.70;;
5801;SDS011;2927;49.366;8.530;2023-03-23T08:10:55;7.30;;;0.90;;
5801;SDS011;2927;49.366;8.530;2023-03-23T08:13:21;0.60;;;0.60;;
5801;SDS011;2927;49.366;8.530;2023-03-23T08:15:46;1.73;;;0.80;;
5801;SDS011;2927;49.366;8.530;2023-03-23T08:18:12;0.83;;;0.60;;
5801;SDS011;2927;49.366;8.530;2023-03-23T08:20:38;5.83;;;1.03;;
5801;SDS011;2927;49.366;8.530;2023-03-23T08:23:05;0.53;;;0.50;;
5801;SDS011;2927;49.366;8.530;2023-03-23T08:25:31;1.10;;;1.00;;
5801;SDS011;2927;49.366;8.530;2023-03-23T08:27:57;2.00;;;1.10;;
5801;SDS011;2927;49.366;8.530;2023-03-23T08:30:23;2.40;;;0.83;;
5801;SDS011;2927;49.366;8.530;2023-03-23T08:32:51;1.10;;;0.80;;
5801;SDS011;2927;49.366;8.530;2023-03-23T08:35:17;0.87;;;0.80;;
5801;SDS011;2927;49.366;8.530;2023-03-23T08:37:44;1.33;;;0.77;;
5801;SDS011;2927;49.366;8.530;2023-03-23T08:40:11;1.07;;;0.97;;
5801;SDS011;2927;49.366;8.530;2023-03-23T08:42:40;2.20;;;0.90;;
5801;SDS011;2927;49.366;8.530;2023-03-23T08:45:08;0.60;;;0.60;;
5801;SDS011;2927;49.366;8.530;2023-03-23T08:47:35;1.20;;;0.90;;
5801;SDS011;2927;49.366;8.530;2023-03-23T08:50:02;0.70;;;0.70;;
5801;SDS011;2927;49.366;8.530;2023-03-23T08:52:28;4.40;;;0.67;;
5801;SDS011;2927;49.366;8.530;2023-03-23T08:54:54;2.77;;;0.90;;
5801;SDS011;2927;49.366;8.530;2023-03-23T08:57:21;3.23;;;1.07;;
5801;SDS011;2927;49.366;8.530;2023-03-23T08:59:48;1.73;;;0.80;;
5801;SDS011;2927;49.366;8.530;2023-03-23T09:02:13;0.70;;;0.70;;
5801;SDS011;2927;49.366;8.530;2023-03-23T09:04:39;2.07;;;0.90;;
5801;SDS011;2927;49.366;8.530;2023-03-23T09:07:07;2.50;;;0.87;;
5801;SDS011;2927;49.366;8.530;2023-03-23T09:09:34;4.13;;;1.07;;
5801;SDS011;2927;49.366;8.530;2023-03-23T09:12:00;0.67;;;0.67;;
5801;SDS011;2927;49.366;8.530;2023-03-23T09:14:25;2.30;;;1.27;;
5801;SDS011;2927;49.366;8.530;2023-03-23T09:16:51;2.40;;;1.17;;
5801;SDS011;2927;49.366;8.530;2023-03-23T09:19:17;2.10;;;0.90;;
5801;SDS011;2927;49.366;8.530;2023-03-23T09:21:43;2.10;;;0.90;;
5801;SDS011;2927;49.366;8.530;2023-03-23T09:24:10;3.43;;;1.10;;
5801;SDS011;2927;49.366;8.530;2023-03-23T09:26:36;6.47;;;1.10;;
5801;SDS011;2927;49.366;8.530;2023-03-23T09:29:01;2.80;;;1.07;;
5801;SDS011;2927;49.366;8.530;2023-03-23T09:31:27;2.70;;;0.90;;
5801;SDS011;2927;49.366;8.530;2023-03-23T09:33:54;0.80;;;0.77;;
5801;SDS011;2927;49.366;8.530;2023-03-23T09:36:21;2.63;;;1.43;;
5801;SDS011;2927;49.366;8.530;2023-03-23T09:38:48;1.70;;;0.87;;
5801;SDS011;2927;49.366;8.530;2023-03-23T09:44:10;1.83;;;0.90;;
5801;SDS011;2927;49.366;8.530;2023-03-23T09:47:19;2.00;;;0.90;;
5801;SDS011;2927;49.366;8.530;2023-03-23T09:49:59;0.93;;;0.93;;
5801;SDS011;2927;49.366;8.530;2023-03-23T09:52:50;1.20;;;1.10;;
5801;SDS011;2927;49.366;8.530;2023-03-23T09:55:21;1.33;;;0.70;;
5801;SDS011;2927;49.366;8.530;2023-03-23T10:00:26;3.37;;;1.17;;
5801;SDS011;2927;49.366;8.530;2023-03-23T10:03:02;0.80;;;0.77;;
5801;SDS011;2927;49.366;8.530;2023-03-23T10:05:44;1.27;;;0.70;;
5801;SDS011;2927;49.366;8.530;2023-03-23T10:08:13;9.20;;;1.33;;
5801;SDS011;2927;49.366;8.530;2023-03-23T10:16:46;2.50;;;0.90;;
5801;SDS011;2927;49.366;8.530;2023-03-23T10:19:25;2.67;;;0.90;;
5801;SDS011;2927;49.366;8.530;2023-03-23T10:22:04;0.80;;;0.80;;
5801;SDS011;2927;49.366;8.530;2023-03-23T10:24:41;2.80;;;1.10;;
5801;SDS011;2927;49.366;8.530;2023-03-23T10:27:23;3.60;;;1.13;;
5801;SDS011;2927;49.366;8.530;2023-03-23T10:30:17;0.80;;;0.80;;
5801;SDS011;2927;49.366;8.530;2023-03-23T10:32:54;1.10;;;1.00;;
5801;SDS011;2927;49.366;8.530;2023-03-23T10:35:37;1.03;;;1.03;;
5801;SDS011;2927;49.366;8.530;2023-03-23T10:38:13;1.00;;;0.90;;
5801;SDS011;2927;49.366;8.530;2023-03-23T10:40:45;2.47;;;0.80;;
5801;SDS011;2927;49.366;8.530;2023-03-23T10:43:18;0.70;;;0.70;;
5801;SDS011;2927;49.366;8.530;2023-03-23T10:45:45;2.60;;;0.90;;
5801;SDS011;2927;49.366;8.530;2023-03-23T10:48:22;0.70;;;0.70;;
5801;SDS011;2927;49.366;8.530;2023-03-23T10:50:54;2.83;;;0.80;;
5801;SDS011;2927;49.366;8.530;2023-03-23T10:53:23;0.83;;;0.77;;
5801;SDS011;2927;49.366;8.530;2023-03-23T10:55:57;0.50;;;0.50;;
5801;SDS011;2927;49.366;8.530;2023-03-23T10:58:25;0.87;;;0.77;;
5801;SDS011;2927;49.366;8.530;2023-03-23T11:00:56;0.83;;;0.77;;
5801;SDS011;2927;49.366;8.530;2023-03-23T11:03:24;1.33;;;0.80;;
5801;SDS011;2927;49.366;8.530;2023-03-23T11:06:03;0.60;;;0.50;;
5801;SDS011;2927;49.366;8.530;2023-03-23T11:08:32;0.80;;;0.70;;
5801;SDS011;2927;49.366;8.530;2023-03-23T11:11:08;2.40;;;0.70;;
5801;SDS011;2927;49.366;8.530;2023-03-23T11:13:44;1.10;;;1.00;;
5801;SDS011;2927;49.366;8.530;2023-03-23T11:16:22;1.60;;;1.47;;
5801;SDS011;2927;49.366;8.530;2023-03-23T11:18:49;1.43;;;0.93;;
5801;SDS011;2927;49.366;8.530;2023-03-23T11:21:14;2.80;;;2.47;;
5801;SDS011;2927;49.366;8.530;2023-03-23T11:23:42;1.23;;;1.13;;
5801;SDS011;2927;49.366;8.530;2023-03-23T11:26:16;1.50;;;1.27;;
5801;SDS011;2927;49.366;8.530;2023-03-23T11:28:58;1.27;;;1.00;;
5801;SDS011;2927;49.366;8.530;2023-03-23T11:31:39;1.03;;;1.03;;
5801;SDS011;2927;49.366;8.530;2023-03-23T11:36:42;0.93;;;0.87;;
5801;SDS011;2927;49.366;8.530;2023-03-23T11:39:29;0.67;;;0.67;;
5801;SDS011;2927;49.366;8.530;2023-03-23T11:41:57;0.60;;;0.50;;
5801;SDS011;2927;49.366;8.530;2023-03-23T11:44:33;1.90;;;1.03;;
5801;SDS011;2927;49.366;8.530;2023-03-23T11:47:20;3.53;;;1.00;;
5801;SDS011;2927;49.366;8.530;2023-03-23T11:52:33;0.93;;;0.93;;
5801;SDS011;2927;49.366;8.530;2023-03-23T11:57:44;1.30;;;0.90;;
5801;SDS011;2927;49.366;8.530;2023-03-23T12:00:19;1.10;;;1.10;;
5801;SDS011;2927;49.366;8.530;2023-03-23T12:08:38;4.10;;;1.30;;
5801;SDS011;2927;49.366;8.530;2023-03-23T12:11:35;1.07;;;1.00;;
5801;SDS011;2927;49.366;8.530;2023-03-23T12:16:58;1.10;;;1.00;;
5801;SDS011;2927;49.366;8.530;2023-03-23T12:28:20;2.67;;;1.93;;
5801;SDS011;2927;49.366;8.530;2023-03-23T12:31:09;3.20;;;1.10;;
5801;SDS011;2927;49.366;8.530;2023-03-23T12:36:42;1.00;;;0.90;;
5801;SDS011;2927;49.366;8.530;2023-03-23T12:39:32;1.30;;;1.10;;
5801;SDS011;2927;49.366;8.530;2023-03-23T12:45:11;1.23;;;1.13;;
5801;SDS011;2927;49.366;8.530;2023-03-23T12:47:47;1.00;;;0.90;;
5801;SDS011;2927;49.366;8.530;2023-03-23T12:50:33;0.93;;;0.93;;
5801;SDS011;2927;49.366;8.530;2023-03-23T12:53:11;1.47;;;0.87;;
5801;SDS011;2927;49.366;8.530;2023-03-23T12:55:47;3.40;;;1.20;;
5801;SDS011;2927;49.366;8.530;2023-03-23T12:58:18;0.80;;;0.80;;
5801;SDS011;2927;49.366;8.530;2023-03-23T13:00:56;0.90;;;0.90;;
5801;SDS011;2927;49.366;8.530;2023-03-23T13:06:23;1.60;;;1.20;;
5801;SDS011;2927;49.366;8.530;2023-03-23T13:08:58;3.43;;;1.00;;
5801;SDS011;2927;49.366;8.530;2023-03-23T13:11:37;1.50;;;1.40;;
5801;SDS011;2927;49.366;8.530;2023-03-23T13:28:04;1.13;;;1.13;;
5801;SDS011;2927;49.366;8.530;2023-03-23T13:30:30;1.10;;;1.00;;
5801;SDS011;2927;49.366;8.530;2023-03-23T13:33:02;7.53;;;1.20;;
5801;SDS011;2927;49.366;8.530;2023-03-23T13:35:33;1.30;;;1.20;;
5801;SDS011;2927;49.366;8.530;2023-03-23T13:38:02;1.60;;;1.50;;
5801;SDS011;2927;49.366;8.530;2023-03-23T13:40:44;2.90;;;1.07;;
5801;SDS011;2927;49.366;8.530;2023-03-23T13:43:11;6.00;;;1.50;;
5801;SDS011;2927;49.366;8.530;2023-03-23T13:50:44;4.63;;;1.20;;
5801;SDS011;2927;49.366;8.530;2023-03-23T13:53:22;1.27;;;1.00;;
5801;SDS011;2927;49.366;8.530;2023-03-23T13:55:49;2.70;;;1.20;;
5801;SDS011;2927;49.366;8.530;2023-03-23T13:58:23;4.63;;;1.33;;
5801;SDS011;2927;49.366;8.530;2023-03-23T14:01:00;1.03;;;1.00;;
5801;SDS011;2927;49.366;8.530;2023-03-23T14:03:36;1.30;;;1.20;;
5801;SDS011;2927;49.366;8.530;2023-03-23T14:06:05;2.13;;;1.10;;
5801;SDS011;2927;49.366;8.530;2023-03-23T14:08:41;1.27;;;1.17;;
5801;SDS011;2927;49.366;8.530;2023-03-23T14:11:22;1.23;;;1.20;;
5801;SDS011;2927;49.366;8.530;2023-03-23T14:14:03;1.10;;;1.00;;
5801;SDS011;2927;49.366;8.530;2023-03-23T14:19:00;3.47;;;1.60;;
5801;SDS011;2927;49.366;8.530;2023-03-23T14:24:05;1.83;;;1.10;;
5801;SDS011;2927;49.366;8.530;2023-03-23T14:26:40;3.60;;;1.10;;
5801;SDS011;2927;49.366;8.530;2023-03-23T14:29:08;1.20;;;1.10;;
5801;SDS011;2927;49.366;8.530;2023-03-23T14:31:35;1.10;;;1.10;;
5801;SDS011;2927;49.366;8.530;2023-03-23T14:34:14;4.93;;;1.10;;
5801;SDS011;2927;49.366;8.530;2023-03-23T14:36:42;1.17;;;0.80;;
5801;SDS011;2927;49.366;8.530;2023-03-23T14:41:44;0.97;;;0.73;;
5801;SDS011;2927;49.366;8.530;2023-03-23T14:44:12;1.73;;;1.57;;
5801;SDS011;2927;49.366;8.530;2023-03-23T14:46:41;1.30;;;1.20;;
5801;SDS011;2927;49.366;8.530;2023-03-23T14:49:14;1.30;;;1.17;;
5801;SDS011;2927;49.366;8.530;2023-03-23T14:51:52;2.70;;;1.20;;
5801;SDS011;2927;49.366;8.530;2023-03-23T14:54:24;5.33;;;1.70;;
5801;SDS011;2927;49.366;8.530;2023-03-23T14:56:51;2.30;;;0.80;;
5801;SDS011;2927;49.366;8.530;2023-03-23T14:59:18;1.13;;;0.83;;
5801;SDS011;2927;49.366;8.530;2023-03-23T15:01:44;1.10;;;1.00;;
5801;SDS011;2927;49.366;8.530;2023-03-23T15:04:13;0.77;;;0.77;;
5801;SDS011;2927;49.366;8.530;2023-03-23T15:06:46;1.83;;;1.00;;
5801;SDS011;2927;49.366;8.530;2023-03-23T15:09:17;2.60;;;1.30;;
5801;SDS011;2927;49.366;8.530;2023-03-23T15:11:50;2.40;;;1.10;;
5801;SDS011;2927;49.366;8.530;2023-03-23T15:14:22;2.70;;;1.67;;
5801;SDS011;2927;49.366;8.530;2023-03-23T15:16:57;4.47;;;1.80;;
5801;SDS011;2927;49.366;8.530;2023-03-23T15:19:26;1.27;;;1.13;;
5801;SDS011;2927;49.366;8.530;2023-03-23T15:22:20;2.73;;;1.97;;
5801;SDS011;2927;49.366;8.530;2023-03-23T15:27:52;0.90;;;0.90;;
5801;SDS011;2927;49.366;8.530;2023-03-23T15:32:50;1.57;;;1.17;;
5801;SDS011;2927;49.366;8.530;2023-03-23T15:35:18;1.50;;;1.40;;
5801;SDS011;2927;49.366;8.530;2023-03-23T15:37:50;2.80;;;2.10;;
5801;SDS011;2927;49.366;8.530;2023-03-23T15:40:22;4.30;;;3.07;;
5801;SDS011;2927;49.366;8.530;2023-03-23T15:42:49;6.47;;;4.40;;
5801;SDS011;2927;49.366;8.530;2023-03-23T15:45:29;7.70;;;4.30;;
5801;SDS011;2927;49.366;8.530;2023-03-23T15:47:57;2.77;;;2.47;;
5801;SDS011;2927;49.366;8.530;2023-03-23T15:52:55;1.20;;;1.20;;
5801;SDS011;2927;49.366;8.530;2023-03-23T15:57:49;1.53;;;1.40;;
5801;SDS011;2927;49.366;8.530;2023-03-23T16:00:16;5.57;;;2.97;;
5801;SDS011;2927;49.366;8.530;2023-03-23T16:02:43;1.40;;;1.17;;
5801;SDS011;2927;49.366;8.530;2023-03-23T16:05:13;1.47;;;1.37;;
5801;SDS011;2927;49.366;8.530;2023-03-23T16:07:39;3.27;;;1.10;;
5801;SDS011;2927;49.366;8.530;2023-03-23T16:10:05;1.27;;;1.17;;
5801;SDS011;2927;49.366;8.530;2023-03-23T16:12:38;2.90;;;1.20;;
5801;SDS011;2927;49.366;8.530;2023-03-23T16:15:04;1.83;;;1.30;;
5801;SDS011;2927;49.366;8.530;2023-03-23T16:17:30;1.83;;;1.33;;
5801;SDS011;2927;49.366;8.530;2023-03-23T16:19:57;1.63;;;1.30;;
5801;SDS011;2927;49.366;8.530;2023-03-23T16:22:22;1.87;;;1.50;;
5801;SDS011;2927;49.366;8.530;2023-03-23T16:24:48;2.63;;;2.13;;
5801;SDS011;2927;49.366;8.530;2023-03-23T16:27:13;4.87;;;2.37;;
5801;SDS011;2927;49.366;8.530;2023-03-23T16:29:39;5.97;;;2.97;;
5801;SDS011;2927;49.366;8.530;2023-03-23T16:32:04;5.80;;;2.20;;
5801;SDS011;2927;49.366;8.530;2023-03-23T16:34:30;4.23;;;3.77;;
5801;SDS011;2927;49.366;8.530;2023-03-23T16:36:57;5.57;;;2.50;;
5801;SDS011;2927;49.366;8.530;2023-03-23T16:39:23;15.27;;;7.70;;
5801;SDS011;2927;49.366;8.530;2023-03-23T16:41:48;10.50;;;4.93;;
5801;SDS011;2927;49.366;8.530;2023-03-23T16:44:14;4.10;;;3.30;;
5801;SDS011;2927;49.366;8.530;2023-03-23T16:46:40;3.50;;;2.43;;
5801;SDS011;2927;49.366;8.530;2023-03-23T16:49:05;8.03;;;5.03;;
5801;SDS011;2927;49.366;8.530;2023-03-23T16:51:31;2.23;;;2.00;;
5801;SDS011;2927;49.366;8.530;2023-03-23T16:53:56;4.50;;;2.70;;
5801;SDS011;2927;49.366;8.530;2023-03-23T16:56:22;3.90;;;3.43;;
5801;SDS011;2927;49.366;8.530;2023-03-23T16:58:47;5.60;;;3.80;;
5801;SDS011;2927;49.366;8.530;2023-03-23T17:01:13;6.17;;;3.10;;
5801;SDS011;2927;49.366;8.530;2023-03-23T17:03:39;3.57;;;2.33;;
5801;SDS011;2927;49.366;8.530;2023-03-23T17:06:06;4.47;;;1.60;;
5801;SDS011;2927;49.366;8.530;2023-03-23T17:08:32;4.40;;;4.00;;
5801;SDS011;2927;49.366;8.530;2023-03-23T17:10:58;13.30;;;9.13;;